Terminal Aerodrome Forecast
Issued by NWS

Home | Current Version | Previous Version | Graphics & Text | Print | Product List | Glossary On
Versions: 1 2 3 4 5 6 7 8 9 10 11 12 13
236
FTUS43 KFGF 211729
TAFBJI
TAF
KBJI 211729Z 2118/2218 26008KT P6SM FEW250
     FM220300 VRB03KT P6SM FEW250
     FM221700 29007KT P6SM SCT250=

USA.gov is the U.S. government's official web portal to all federal, state and local government web resources and services.